| time (UTC) | temp F | wind direction | speed MPH | gust MPH | rain 1hr in | rain 24hr in | rain mn in | humidity % | barometer mb |
| 20260901070012 | 81 | 253 | 5.0 | 9.0 | 0.00 | 0.00 | 0.00 | 84 | 1016.5 |
| 20260901064534 | 81 | 250 | 7.0 | 11.0 | 0.00 | 0.00 | 0.00 | 84 | 1016.7 |
| 20260901063005 | 81 | 246 | 8.0 | 11.0 | 0.00 | 0.00 | 0.00 | 85 | 1016.8 |
| 20260901061549 | 81 | 194 | 8.0 | 11.0 | 0.00 | 0.00 | 0.00 | 85 | 1016.9 |
| 20260901060048 | 80 | 223 | 6.0 | 10.0 | 0.00 | 0.00 | 0.00 | 88 | 1017.0 |
| 20260901054549 | 78 | 214 | 6.0 | 8.0 | 0.00 | 0.00 | 0.00 | 91 | 1017.0 |
| 20260901053103 | 78 | 176 | 2.0 | 5.0 | 0.00 | 0.00 | 0.00 | 92 | 1017.0 |
| 20260901051540 | 78 | 176 | 2.0 | 5.0 | 0.00 | 0.00 | 0.00 | 92 | 1017.1 |
| 20260901050036 | 78 | 176 | 3.0 | 7.0 | 0.00 | 0.00 | 0.00 | 92 | 1017.0 |
| 20260901044538 | 78 | 173 | 4.0 | 7.0 | 0.00 | 0.00 | 0.00 | 91 | 1016.9 |
| 20260901043039 | 78 | 176 | 3.0 | 6.0 | 0.00 | 0.00 | 0.00 | 91 | 1016.9 |
| 20260901041503 | 78 | 176 | 4.0 | 7.0 | 0.00 | 0.00 | 0.00 | 90 | 1016.9 |
| 20260901040012 | 78 | 173 | 4.0 | 6.0 | 0.00 | 0.00 | 0.00 | 90 | 1016.9 |
| 20260901034500 | 78 | 173 | 4.0 | 6.0 | 0.00 | 0.00 | 0.00 | 90 | 1016.9 |
| 20260901033054 | 78 | 181 | 3.0 | 5.0 | 0.00 | 0.00 | 0.00 | 90 | 1017.0 |
| 20260901031546 | 78 | 181 | 3.0 | 5.0 | 0.00 | 0.00 | 0.00 | 90 | 1017.1 |
| 20260901030009 | 79 | 181 | 3.0 | 5.0 | 0.00 | 0.00 | 0.00 | 89 | 1017.1 |
| 20260901024604 | 79 | 181 | 3.0 | 6.0 | 0.00 | 0.00 | 0.00 | 89 | 1017.1 |
| 20260901023039 | 79 | 156 | 3.0 | 5.0 | 0.00 | 0.00 | 0.00 | 88 | 1017.1 |
| 20260901021624 | 79 | 156 | 2.0 | 5.0 | 0.00 | 0.00 | 0.00 | 88 | 1017.2 |
| 20260901020027 | 79 | 156 | 2.0 | 5.0 | 0.00 | 0.00 | 0.00 | 87 | 1017.1 |
| 20260901014551 | 79 | 156 | 3.0 | 5.0 | 0.00 | 0.00 | 0.00 | 87 | 1017.2 |
| 20260901013033 | 79 | 156 | 2.0 | 6.0 | 0.00 | 0.00 | 0.00 | 86 | 1017.1 |
| 20260901011545 | 79 | 156 | 5.0 | 9.0 | 0.00 | 0.00 | 0.00 | 86 | 1017.0 |
| 20260901010032 | 80 | 157 | 4.0 | 7.0 | 0.00 | 0.00 | 0.00 | 85 | 1016.9 |
| 20260901004522 | 80 | 140 | 4.0 | 8.0 | 0.00 | 0.00 | 0.00 | 85 | 1016.8 |
| 20260901003052 | 80 | 143 | 4.0 | 8.0 | 0.00 | 0.00 | 0.00 | 85 | 1016.8 |
| 20260901001508 | 80 | 137 | 5.0 | 9.0 | 0.00 | 0.00 | 0.00 | 84 | 1016.7 |
| 20260901000048 | 80 | 131 | 5.0 | 9.0 | 0.00 | 0.00 | 0.00 | 84 | 1016.6 |
| 20260831234526 | 80 | 149 | 5.0 | 8.0 | 0.00 | 0.00 | 0.00 | 83 | 1016.5 |
| 20260831233045 | 81 | 133 | 5.0 | 7.0 | 0.00 | 0.00 | 0.00 | 83 | 1016.7 |
| 20260831231515 | 81 | 128 | 4.0 | 7.0 | 0.00 | 0.00 | 0.00 | 82 | 1016.8 |
| 20260831230029 | 82 | 115 | 4.0 | 7.0 | 0.00 | 0.00 | 0.00 | 81 | 1016.8 |
| 20260831224509 | 82 | 137 | 4.0 | 7.0 | 0.00 | 0.00 | 0.00 | 82 | 1016.8 |
| 20260831223044 | 83 | 109 | 4.0 | 7.0 | 0.00 | 0.00 | 0.00 | 81 | 1016.8 |
| 20260831221526 | 83 | 101 | 3.0 | 7.0 | 0.00 | 0.00 | 0.00 | 82 | 1016.7 |
| 20260831220116 | 82 | 104 | 4.0 | 6.0 | 0.00 | 0.00 | 0.00 | 81 | 1016.7 |
| 20260831214535 | 83 | 72 | 4.0 | 7.0 | 0.00 | 0.00 | 0.00 | 80 | 1016.8 |
| 20260831213045 | 83 | 104 | 3.0 | 7.0 | 0.00 | 0.00 | 0.00 | 81 | 1016.7 |
| 20260831211534 | 83 | 88 | 3.0 | 7.0 | 0.00 | 0.00 | 0.00 | 81 | 1016.8 |
| 20260831210030 | 83 | 67 | 4.0 | 7.0 | 0.00 | 0.00 | 0.00 | 81 | 1016.8 |
| 20260831204546 | 83 | 121 | 4.0 | 7.0 | 0.00 | 0.00 | 0.00 | 80 | 1016.7 |
| 20260831203002 | 83 | 86 | 5.0 | 7.0 | 0.00 | 0.00 | 0.00 | 81 | 1016.8 |
| 20260831201600 | 83 | 78 | 4.0 | 8.0 | 0.00 | 0.00 | 0.00 | 80 | 1016.8 |
| 20260831194545 | 84 | 94 | 4.0 | 6.0 | 0.00 | 0.00 | 0.00 | 80 | 1016.9 |
| 20260831193029 | 84 | 79 | 4.0 | 8.0 | 0.00 | 0.00 | 0.00 | 79 | 1017.1 |
| 20260831191510 | 83 | 89 | 4.0 | 7.0 | 0.00 | 0.00 | 0.00 | 80 | 1017.2 |
| 20260831190027 | 84 | 94 | 4.0 | 7.0 | 0.00 | 0.00 | 0.00 | 80 | 1017.3 |
| 20260831184608 | 84 | 91 | 4.0 | 7.0 | 0.00 | 0.00 | 0.00 | 80 | 1017.4 |
| 20260831183056 | 84 | 90 | 4.0 | 8.0 | 0.00 | 0.00 | 0.00 | 81 | 1017.5 |
| 20260831181539 | 83 | 85 | 6.0 | 8.0 | 0.00 | 0.00 | 0.00 | 80 | 1017.7 |
| 20260831180040 | 83 | 88 | 5.0 | 8.0 | 0.00 | 0.00 | 0.00 | 81 | 1017.8 |
| 20260831174605 | 83 | 127 | 3.0 | 8.0 | 0.00 | 0.00 | 0.00 | 81 | 1017.8 |
| 20260831173033 | 84 | 67 | 5.0 | 8.0 | 0.00 | 0.00 | 0.00 | 80 | 1018.0 |
| 20260831171601 | 84 | 64 | 4.0 | 8.0 | 0.00 | 0.00 | 0.00 | 81 | 1018.2 |
| 20260831170029 | 84 | 54 | 4.0 | 9.0 | 0.00 | 0.00 | 0.00 | 83 | 1018.1 |
| 20260831164521 | 83 | 73 | 4.0 | 8.0 | 0.00 | 0.00 | 0.00 | 83 | 1018.3 |
| 20260831163052 | 83 | 82 | 5.0 | 8.0 | 0.00 | 0.00 | 0.00 | 83 | 1018.4 |
| 20260831161524 | 82 | 67 | 6.0 | 9.0 | 0.00 | 0.00 | 0.00 | 86 | 1018.3 |
| 20260831160058 | 82 | 69 | 5.0 | 9.0 | 0.00 | 0.00 | 0.00 | 85 | 1018.5 |
| 20260831154539 | 82 | 82 | 5.0 | 8.0 | 0.00 | 0.00 | 0.00 | 86 | 1018.4 |
| 20260831153009 | 82 | 52 | 5.0 | 8.0 | 0.00 | 0.00 | 0.00 | 86 | 1018.5 |
| 20260831151525 | 82 | 78 | 5.0 | 9.0 | 0.00 | 0.00 | 0.00 | 85 | 1018.6 |
| 20260831150032 | 82 | 67 | 6.0 | 9.0 | 0.00 | 0.00 | 0.00 | 85 | 1018.5 |
| 20260831144546 | 81 | 46 | 7.0 | 9.0 | 0.00 | 0.00 | 0.00 | 85 | 1018.5 |
| 20260831143045 | 82 | 52 | 6.0 | 11.0 | 0.00 | 0.00 | 0.00 | 86 | 1018.4 |
| 20260831094510 | 79 | 331 | 8.0 | 11.0 | 0.00 | 0.00 | 0.00 | 93 | 1017.2 |
| 20260831093006 | 79 | 322 | 7.0 | 13.0 | 0.00 | 0.00 | 0.00 | 93 | 1017.1 |